Terminal Aerodrome Forecast
Issued by NWS

Home | Current Version | Previous Version | Text Only | Print | Product List | Glossary On
Versions: 1 2 3 4 5 6 7 8 9 10 11 12 13 14 15 16 17 18 19 20 21 22 23 24
000
FTUS43 KLOT 202320
TAFGYY
TAF
KGYY 202320Z 2100/2124 15015G24KT P6SM SCT090 OVC200
     FM210600 19013G22KT P6SM BKN035 OVC080
     FM210800 22012KT 6SM -SHRA BKN015 OVC035
      TEMPO 2109/2113 3SM SHRA BR BKN008 OVC015
     FM211400 24007KT P6SM SCT007 BKN012
     FM211900 28006KT P6SM SCT025=

USA.gov is the U.S. government's official web portal to all federal, state and local government web resources and services.